Terminal Aerodrome Forecast
Issued by NWS

Current Version | Previous Version | Text Only | Print | Product List | Glossary Off
Versions: 1 2 3 4 5 6 7 8 9 10 11 12 13

598
FTUS41 KPBZ 041737
TAFMGW
TAF
KMGW 041737Z 0418/0518 30005KT P6SM SCT025 OVC035
     FM050500 30004KT P6SM OVC025
     FM051500 29005KT P6SM SCT250=

USA.gov is the U.S. government's official web portal to all federal, state and local government web resources and services.